Time;durP1;ratioP1;P1;durP2;ratioP2;P2;SDS_P1;SDS_P2;PMS_P1;PMS_P2;Temp;Humidity;BMP_temperature;BMP_pressure;BME280_temperature;BME280_humidity;BME280_pressure;Samples;Min_cycle;Max_cycle;Signal;HPM_P1;HPM_P2
2022/06/04 00:00:18;;;;;;;3.07;1.60;;;16.80;1.00;;;;;;5053196;28;20238;-73
2022/06/04 00:02:46;;;;;;;3.77;1.50;;;16.80;47.40;;;;;;5054116;28;20182;-73
2022/06/04 00:05:13;;;;;;;2.43;1.50;;;16.80;99.90;;;;;;5036193;28;20595;-73
2022/06/04 00:07:39;;;;;;;2.50;1.73;;;16.70;1.00;;;;;;5054270;28;20701;-73
2022/06/04 00:15:48;;;;;;;3.20;1.50;;;16.60;98.20;;;;;;5054006;28;20660;-73
2022/06/04 00:18:14;;;;;;;2.80;1.40;;;16.60;99.90;;;;;;5053712;28;20171;-73
2022/06/04 00:20:40;;;;;;;3.53;1.50;;;16.60;1.00;;;;;;5035977;28;20194;-73
2022/06/04 00:23:07;;;;;;;2.83;1.63;;;16.60;1.00;;;;;;5035956;28;20206;-73
2022/06/04 00:25:34;;;;;;;2.27;1.50;;;16.60;1.00;;;;;;5035906;28;20206;-73
2022/06/04 00:28:02;;;;;;;3.77;1.57;;;16.50;1.00;;;;;;5035848;28;20182;-75
2022/06/04 00:30:28;;;;;;;2.90;1.37;;;16.50;1.00;;;;;;5053553;28;20191;-75
2022/06/04 00:32:54;;;;;;;5.33;1.20;;;16.50;1.00;;;;;;5035669;28;20195;-75
2022/06/04 00:35:19;;;;;;;4.13;1.53;;;16.40;1.00;;;;;;5053543;28;20182;-75
2022/06/04 00:37:45;;;;;;;2.50;1.57;;;16.40;8.80;;;;;;5053547;28;20596;-75
2022/06/04 00:40:17;;;;;;;2.43;2.23;;;16.30;1.00;;;;;;5035596;28;20203;-73
2022/06/04 00:42:42;;;;;;;3.00;1.97;;;16.30;1.00;;;;;;5035549;28;20160;-73
2022/06/04 00:45:20;;;;;;;2.90;1.63;;;16.30;1.00;;;;;;5053325;28;20170;-73
2022/06/04 00:47:46;;;;;;;4.47;2.00;;;16.20;99.90;;;;;;5053607;28;20209;-73
2022/06/04 00:50:14;;;;;;;4.93;1.93;;;16.20;99.90;;;;;;5053353;28;20672;-73
2022/06/04 00:52:42;;;;;;;3.63;1.60;;;16.10;99.90;;;;;;5053130;28;20225;-74
2022/06/04 00:55:09;;;;;;;2.93;2.00;;;16.10;99.90;;;;;;5053370;28;20540;-73
2022/06/04 00:57:42;;;;;;;3.63;1.50;;;16.10;99.90;;;;;;5053160;28;20172;-73
2022/06/04 01:00:15;;;;;;;2.33;1.60;;;16.10;1.00;;;;;;5053310;28;20183;-73
2022/06/04 01:03:10;;;;;;;1.43;1.33;;;16.10;1.00;;;;;;5035264;28;20614;-73
2022/06/04 01:05:54;;;;;;;2.93;2.00;;;16.00;1.00;;;;;;5042207;28;20309;-73
2022/06/04 01:08:31;;;;;;;5.47;1.60;;;16.00;99.90;;;;;;5035750;28;20168;-73
2022/06/04 01:11:19;;;;;;;2.50;1.60;;;16.00;1.00;;;;;;5034958;28;20203;-73
2022/06/04 01:14:03;;;;;;;2.27;1.60;;;16.00;1.00;;;;;;5035029;28;20191;-73
2022/06/04 01:16:28;;;;;;;4.57;1.83;;;15.90;6.80;;;;;;5053138;28;20180;-73
2022/06/04 01:19:11;;;;;;;2.60;1.63;;;15.90;99.90;;;;;;5053133;28;20175;-73
2022/06/04 01:22:02;;;;;;;3.47;2.07;;;15.90;89.60;;;;;;5034994;28;20534;-73
2022/06/04 01:24:53;;;;;;;4.00;1.97;;;15.80;1.00;;;;;;5048951;28;20203;-73
2022/06/04 01:27:40;;;;;;;6.70;1.93;;;15.80;1.00;;;;;;5052790;28;20704;-73
2022/06/04 01:30:24;;;;;;;2.87;2.10;;;15.70;1.00;;;;;;5052730;28;20191;-73
2022/06/04 01:33:10;;;;;;;4.50;2.00;;;15.70;1.00;;;;;;5053028;28;20191;-72
2022/06/04 01:36:00;;;;;;;3.27;2.17;;;15.70;1.00;;;;;;5052835;28;20152;-73
2022/06/04 01:38:39;;;;;;;5.10;2.03;;;15.70;17.90;;;;;;5051952;28;20187;-73
2022/06/04 01:41:10;;;;;;;5.67;2.37;;;15.70;99.90;;;;;;5052951;28;20196;-73
2022/06/04 01:43:52;;;;;;;3.00;2.10;;;15.70;99.90;;;;;;5053000;28;20153;-73
2022/06/04 01:46:20;;;;;;;3.67;1.63;;;15.60;1.00;;;;;;5052950;28;20182;-73
2022/06/04 01:48:51;;;;;;;4.30;2.30;;;15.70;1.00;;;;;;5034748;28;20180;-73
2022/06/04 01:51:24;;;;;;;6.07;2.43;;;15.70;1.00;;;;;;5052749;28;20274;-73
2022/06/04 01:53:54;;;;;;;3.60;2.40;;;15.70;1.00;;;;;;5053048;28;20183;-73
2022/06/04 01:56:24;;;;;;;3.13;2.43;;;15.70;1.00;;;;;;5052965;28;20210;-74
2022/06/04 01:59:15;;;;;;;3.93;2.30;;;15.60;1.00;;;;;;5034768;28;20229;-74
2022/06/04 02:01:43;;;;;;;4.33;2.17;;;15.60;1.00;;;;;;5034905;28;20665;-74
2022/06/04 02:04:13;;;;;;;2.83;2.17;;;15.60;1.00;;;;;;5052461;28;20218;-74
2022/06/04 02:07:29;;;;;;;3.43;2.07;;;15.60;63.50;;;;;;5053163;28;20174;-73
2022/06/04 02:09:35;;;;;;;3.93;2.43;;;15.60;99.90;;;;;;5056044;28;20229;-74
2022/06/04 02:12:04;;;;;;;5.03;2.10;;;15.60;99.90;;;;;;5056237;28;20209;-73
2022/06/04 02:14:30;;;;;;;3.93;2.47;;;15.60;99.90;;;;;;5056116;28;20188;-73
2022/06/04 02:17:01;;;;;;;3.17;2.50;;;15.50;99.90;;;;;;5038423;28;20191;-73
2022/06/04 02:19:27;;;;;;;3.90;2.60;;;15.60;1.00;;;;;;5056392;28;20199;-73
2022/06/04 02:21:54;;;;;;;3.50;2.30;;;15.50;1.00;;;;;;5056178;28;20176;-73
2022/06/04 02:24:20;;;;;;;7.23;2.63;;;15.60;1.00;;;;;;5038101;28;20172;-73
2022/06/04 02:26:45;;;;;;;3.53;2.40;;;15.40;1.00;;;;;;5038043;28;20549;-73
2022/06/04 02:29:12;;;;;;;10.10;2.93;;;15.50;1.00;;;;;;5055883;28;20174;-73
2022/06/04 02:32:01;;;;;;;5.20;2.60;;;15.40;99.90;;;;;;5037959;28;20179;-75
2022/06/04 02:34:41;;;;;;;4.07;2.27;;;15.40;99.90;;;;;;5037918;28;20227;-74
2022/06/04 02:37:16;;;;;;;3.53;2.67;;;15.40;99.90;;;;;;5055790;28;20575;-73
2022/06/04 02:39:52;;;;;;;9.63;2.77;;;15.40;1.00;;;;;;5055945;28;20183;-73
2022/06/04 02:42:17;;;;;;;6.27;2.30;;;15.40;1.00;;;;;;5055829;28;20234;-73
2022/06/04 02:45:06;;;;;;;3.30;2.37;;;15.40;1.00;;;;;;5055629;28;20263;-72
2022/06/04 02:47:42;;;;;;;2.80;2.30;;;15.40;99.90;;;;;;5037963;28;20579;-75
2022/06/04 02:50:17;;;;;;;4.07;2.93;;;15.40;1.00;;;;;;5037615;28;20249;-75
2022/06/04 02:52:45;;;;;;;3.43;2.60;;;15.30;99.90;;;;;;5055762;28;20644;-74
2022/06/04 02:55:16;;;;;;;6.97;2.53;;;15.30;99.90;;;;;;5055765;28;20159;-74
2022/06/04 02:57:45;;;;;;;4.73;2.93;;;15.30;1.00;;;;;;5055526;28;20162;-74
2022/06/04 03:00:17;;;;;;;6.77;2.97;;;15.30;99.90;;;;;;5055650;28;20552;-74
2022/06/04 03:02:43;;;;;;;5.20;2.90;;;15.30;44.40;;;;;;5055641;28;20152;-73
2022/06/04 03:05:20;;;;;;;5.87;2.80;;;15.30;99.90;;;;;;5037407;28;20650;-74
2022/06/04 03:07:48;;;;;;;6.90;3.10;;;15.20;1.00;;;;;;5038360;28;20502;-74
2022/06/04 03:10:18;;;;;;;4.07;2.70;;;15.30;99.90;;;;;;5055116;28;20207;-74
2022/06/04 03:12:45;;;;;;;5.20;2.63;;;15.20;1.00;;;;;;5054946;28;20681;-73
2022/06/04 03:15:11;;;;;;;5.00;2.70;;;15.20;99.90;;;;;;5055064;28;20196;-74
2022/06/04 03:17:39;;;;;;;3.93;2.53;;;15.10;99.90;;;;;;5037005;28;20168;-74
2022/06/04 03:20:07;;;;;;;4.53;2.77;;;15.10;1.00;;;;;;5053920;28;20232;-74
2022/06/04 03:22:33;;;;;;;4.33;2.77;;;15.10;99.90;;;;;;5037010;28;20645;-74
2022/06/04 03:24:59;;;;;;;4.90;2.70;;;15.10;20.00;;;;;;5055122;28;20179;-73
2022/06/04 03:27:24;;;;;;;6.80;2.63;;;15.10;99.90;;;;;;5054869;28;20171;-74
2022/06/04 03:29:50;;;;;;;3.20;2.60;;;15.10;99.90;;;;;;5036787;28;20700;-74
2022/06/04 03:32:15;;;;;;;4.40;2.40;;;15.10;99.90;;;;;;5055006;28;20176;-74
2022/06/04 03:34:41;;;;;;;4.33;2.77;;;15.00;1.00;;;;;;5054603;28;20273;-74
2022/06/04 03:37:06;;;;;;;6.30;2.80;;;15.00;1.00;;;;;;5036765;28;20176;-74
2022/06/04 03:39:32;;;;;;;4.53;2.93;;;15.00;99.90;;;;;;5054854;28;20191;-73
2022/06/04 03:41:59;;;;;;;4.53;2.93;;;15.00;1.00;;;;;;5036667;28;20167;-74
2022/06/04 03:44:24;;;;;;;4.77;2.70;;;15.00;99.90;;;;;;5036693;28;20263;-74
2022/06/04 03:46:50;;;;;;;2.77;2.50;;;15.10;1.00;;;;;;5054458;28;20214;-74
2022/06/04 03:49:15;;;;;;;6.97;2.40;;;15.00;99.90;;;;;;5036507;28;20183;-74
2022/06/04 03:51:41;;;;;;;3.20;2.80;;;15.00;1.00;;;;;;5054325;28;20649;-74
2022/06/04 03:54:07;;;;;;;4.70;2.80;;;14.90;99.90;;;;;;5036424;28;20191;-74
2022/06/04 03:56:33;;;;;;;5.27;2.90;;;14.90;81.60;;;;;;5054255;28;20589;-74
2022/06/04 03:58:58;;;;;;;3.37;2.60;;;15.00;99.90;;;;;;5054254;28;20180;-74
2022/06/04 04:01:27;;;;;;;4.23;2.83;;;14.90;1.00;;;;;;5036543;28;20192;-74
2022/06/04 04:03:54;;;;;;;5.50;2.77;;;14.90;1.00;;;;;;5054033;28;20187;-74
2022/06/04 04:06:25;;;;;;;6.57;2.97;;;14.90;99.90;;;;;;5054220;28;20172;-74
2022/06/04 04:08:51;;;;;;;4.27;2.43;;;14.90;99.90;;;;;;5054194;28;20183;-74
2022/06/04 04:11:20;;;;;;;6.90;3.00;;;14.90;1.00;;;;;;5053803;28;20648;-74
2022/06/04 04:13:47;;;;;;;3.93;2.87;;;14.90;99.90;;;;;;5054128;28;20606;-73
2022/06/04 04:16:14;;;;;;;4.63;3.07;;;14.90;99.90;;;;;;5053879;28;20535;-73
2022/06/04 04:18:41;;;;;;;2.77;2.50;;;14.90;1.00;;;;;;5054414;28;20175;-74
2022/06/04 04:21:12;;;;;;;4.93;2.70;;;14.80;99.90;;;;;;5035870;28;20309;-74
2022/06/04 04:23:39;;;;;;;3.80;2.77;;;14.90;1.00;;;;;;5053726;28;20175;-74
2022/06/04 04:26:06;;;;;;;3.80;2.67;;;14.80;99.90;;;;;;5035806;28;20719;-74
2022/06/04 04:28:32;;;;;;;4.43;2.53;;;14.80;99.90;;;;;;5053666;28;20633;-74
2022/06/04 04:30:57;;;;;;;4.13;2.90;;;14.80;1.00;;;;;;5053242;28;20188;-74
2022/06/04 04:33:23;;;;;;;4.67;2.90;;;14.80;99.90;;;;;;5053458;28;20198;-74
2022/06/04 04:35:49;;;;;;;4.43;3.00;;;14.80;1.00;;;;;;5035678;28;20645;-74
2022/06/04 04:38:18;;;;;;;3.17;2.80;;;14.80;1.00;;;;;;5053764;28;20534;-73
2022/06/04 04:40:44;;;;;;;3.97;2.90;;;14.80;99.90;;;;;;5053432;28;20688;-74
2022/06/04 04:43:10;;;;;;;3.07;2.70;;;14.90;1.00;;;;;;5053453;28;20183;-74
2022/06/04 04:45:35;;;;;;;4.50;2.87;;;14.80;1.00;;;;;;5053315;28;20175;-73
2022/06/04 04:48:01;;;;;;;3.13;2.77;;;14.90;99.90;;;;;;5035396;28;20254;-74
2022/06/04 04:50:33;;;;;;;4.23;2.83;;;14.80;68.50;;;;;;5053210;28;20731;-74
2022/06/04 04:53:01;;;;;;;6.53;2.73;;;14.80;99.90;;;;;;5035450;28;20201;-74
2022/06/04 04:55:28;;;;;;;3.77;3.00;;;14.80;1.00;;;;;;5053413;28;20290;-74
2022/06/04 04:57:54;;;;;;;4.83;3.20;;;14.90;1.00;;;;;;5053160;28;20628;-74
2022/06/04 05:00:21;;;;;;;3.83;2.80;;;14.90;99.90;;;;;;5053048;28;20202;-74
2022/06/04 05:02:46;;;;;;;5.77;3.20;;;14.90;99.90;;;;;;5035234;28;20183;-74
2022/06/04 05:05:13;;;;;;;3.80;2.80;;;14.90;99.90;;;;;;5053319;28;20278;-74
2022/06/04 05:07:39;;;;;;;5.30;3.23;;;14.90;99.90;;;;;;5053018;28;20176;-73
2022/06/04 05:10:06;;;;;;;5.57;2.93;;;14.90;1.00;;;;;;5054198;28;20203;-74
2022/06/04 05:12:31;;;;;;;4.90;2.80;;;15.00;1.00;;;;;;5053032;28;20176;-74
2022/06/04 05:14:57;;;;;;;3.53;2.70;;;15.00;99.90;;;;;;5053138;28;20207;-74
2022/06/04 05:17:22;;;;;;;5.40;2.60;;;15.00;99.90;;;;;;5035023;28;20642;-73
2022/06/04 05:19:48;;;;;;;4.00;2.70;;;15.00;99.90;;;;;;5052822;28;20195;-74
2022/06/04 05:22:14;;;;;;;7.30;3.43;;;15.10;10.50;;;;;;5052890;28;20548;-74
2022/06/04 05:24:39;;;;;;;4.03;2.87;;;15.10;99.90;;;;;;5052847;28;20646;-73
2022/06/04 05:27:05;;;;;;;6.13;2.90;;;15.10;1.00;;;;;;5052809;28;20653;-74
2022/06/04 05:29:33;;;;;;;3.50;2.77;;;15.10;20.80;;;;;;5034874;28;20684;-74
2022/06/04 05:31:59;;;;;;;5.83;3.23;;;15.20;1.00;;;;;;5034922;28;20181;-74
2022/06/04 05:34:25;;;;;;;6.70;2.93;;;15.20;1.00;;;;;;5034807;28;20208;-74
2022/06/04 05:36:53;;;;;;;5.53;3.23;;;15.10;99.90;;;;;;5034947;28;20579;-73
2022/06/04 05:39:19;;;;;;;3.50;3.10;;;15.10;23.10;;;;;;5052668;28;20176;-73
2022/06/04 05:41:45;;;;;;;4.13;2.73;;;15.10;99.90;;;;;;5053448;28;20672;-73
2022/06/04 05:44:12;;;;;;;3.93;2.63;;;15.20;1.00;;;;;;5038952;28;20281;-74
2022/06/04 05:46:42;;;;;;;4.13;3.27;;;15.20;1.00;;;;;;5056753;28;20172;-73
2022/06/04 05:49:09;;;;;;;4.00;3.10;;;15.20;1.00;;;;;;5054055;28;20634;-73
2022/06/04 05:51:35;;;;;;;5.50;3.20;;;15.20;1.00;;;;;;5051184;28;20180;-73
2022/06/04 05:54:01;;;;;;;5.97;3.67;;;15.20;1.00;;;;;;5049276;28;20198;-72
2022/06/04 05:56:29;;;;;;;5.27;3.30;;;15.20;1.00;;;;;;5033442;28;20184;-74
2022/06/04 05:58:57;;;;;;;4.40;3.33;;;15.30;1.00;;;;;;5044427;28;20180;-73
2022/06/04 06:01:24;;;;;;;5.47;3.43;;;15.30;99.90;;;;;;5029035;28;20191;-73
2022/06/04 06:03:50;;;;;;;3.30;3.00;;;15.30;99.90;;;;;;5027823;28;20192;-73
2022/06/04 06:06:26;;;;;;;5.27;3.40;;;15.30;1.00;;;;;;5027627;28;20228;-73
2022/06/04 06:08:54;;;;;;;4.30;2.90;;;15.40;1.00;;;;;;5045777;28;20171;-74
2022/06/04 06:11:20;;;;;;;5.27;3.10;;;15.50;64.60;;;;;;5026687;28;21333;-74
2022/06/04 06:13:47;;;;;;;6.57;3.30;;;15.50;1.00;;;;;;5044858;28;20233;-73
2022/06/04 06:16:16;;;;;;;3.83;3.30;;;15.60;30.60;;;;;;5027555;28;20541;-75
2022/06/04 06:18:42;;;;;;;6.33;3.10;;;15.80;33.10;;;;;;5045880;28;20176;-75
2022/06/04 06:21:12;;;;;;;4.57;3.37;;;15.70;1.00;;;;;;5045005;28;20560;-75
2022/06/04 06:23:38;;;;;;;4.10;3.43;;;15.80;1.00;;;;;;5050308;28;20201;-76
2022/06/04 06:26:06;;;;;;;4.47;3.70;;;15.90;1.00;;;;;;5022486;28;20617;-74
2022/06/04 06:28:34;;;;;;;3.40;2.90;;;15.90;1.00;;;;;;5018420;28;20215;-74
2022/06/04 06:30:59;;;;;;;5.27;3.47;;;15.90;1.00;;;;;;5041088;28;20262;-75
2022/06/04 06:33:25;;;;;;;7.50;3.93;;;16.00;1.00;;;;;;5038485;28;20674;-76
2022/06/04 06:35:59;;;;;;;5.00;3.33;;;16.00;1.00;;;;;;5035893;28;20660;-77
2022/06/04 06:38:25;;;;;;;5.10;3.50;;;16.10;99.90;;;;;;5041081;28;20172;-76
2022/06/04 06:40:53;;;;;;;5.03;3.03;;;16.20;99.90;;;;;;5048194;28;20554;-76
2022/06/04 06:43:18;;;;;;;5.37;3.37;;;16.30;99.90;;;;;;5052453;28;20721;-76
2022/06/04 06:45:44;;;;;;;4.63;2.80;;;16.30;96.80;;;;;;5055630;28;20278;-76
2022/06/04 06:48:10;;;;;;;4.80;3.43;;;16.40;1.00;;;;;;5055598;28;20172;-76
2022/06/04 06:50:36;;;;;;;5.50;3.23;;;16.50;99.90;;;;;;5055448;28;20677;-76
2022/06/04 06:53:02;;;;;;;5.17;3.37;;;16.60;1.00;;;;;;5037327;28;20172;-76
2022/06/04 06:55:28;;;;;;;6.20;3.40;;;16.60;24.30;;;;;;5037588;28;20175;-76
2022/06/04 06:57:53;;;;;;;5.67;3.87;;;16.70;99.90;;;;;;5037681;28;20262;-76
2022/06/04 07:00:19;;;;;;;4.13;3.53;;;16.70;1.00;;;;;;5055587;28;20275;-76
2022/06/04 07:02:44;;;;;;;5.07;3.30;;;16.80;1.00;;;;;;5037496;28;20282;-76
2022/06/04 07:05:11;;;;;;;5.37;3.50;;;16.80;1.00;;;;;;5055342;28;20571;-77
2022/06/04 07:07:36;;;;;;;5.63;3.60;;;16.90;1.00;;;;;;5055390;28;20262;-76
2022/06/04 07:10:03;;;;;;;5.53;3.50;;;16.90;1.00;;;;;;5055221;28;20237;-76
2022/06/04 07:12:29;;;;;;;5.07;3.50;;;17.00;1.00;;;;;;5037119;28;20225;-76
2022/06/04 07:14:54;;;;;;;5.17;3.70;;;17.00;1.00;;;;;;5037364;28;20199;-76
2022/06/04 07:17:20;;;;;;;4.20;3.80;;;16.90;99.90;;;;;;5055287;28;20579;-77
2022/06/04 07:19:45;;;;;;;6.20;3.43;;;16.90;1.00;;;;;;5055230;28;20195;-76
2022/06/04 07:22:11;;;;;;;4.47;3.63;;;17.00;1.00;;;;;;5054973;28;20695;-76
2022/06/04 07:24:37;;;;;;;3.80;3.30;;;17.00;1.00;;;;;;5054928;28;20175;-76
2022/06/04 07:27:04;;;;;;;3.83;3.50;;;17.00;1.00;;;;;;5036966;28;20258;-76
2022/06/04 07:29:29;;;;;;;4.60;3.63;;;17.10;1.00;;;;;;5054735;28;20192;-76
2022/06/04 07:31:55;;;;;;;4.10;3.50;;;17.20;1.00;;;;;;5054795;28;20592;-76
2022/06/04 07:34:21;;;;;;;5.77;3.50;;;17.20;99.90;;;;;;5054967;28;20199;-76
2022/06/04 07:36:46;;;;;;;5.93;3.50;;;17.20;1.00;;;;;;5036930;28;20183;-76
2022/06/04 07:39:14;;;;;;;5.73;3.83;;;17.30;1.00;;;;;;5054591;28;20176;-76
2022/06/04 07:41:45;;;;;;;4.67;3.27;;;17.30;99.90;;;;;;5054727;28;20241;-76
2022/06/04 07:44:13;;;;;;;4.03;3.63;;;17.40;99.90;;;;;;5055014;28;20238;-77
2022/06/04 07:46:40;;;;;;;7.10;3.17;;;17.30;99.90;;;;;;5036569;28;20237;-76
2022/06/04 07:49:06;;;;;;;4.30;3.53;;;17.40;99.90;;;;;;5054407;28;20530;-77
2022/06/04 07:51:34;;;;;;;5.97;3.00;;;17.50;99.90;;;;;;5036433;28;20183;-76
2022/06/04 07:54:01;;;;;;;4.67;3.87;;;17.50;1.00;;;;;;5054193;28;20227;-76
2022/06/04 07:56:26;;;;;;;4.93;3.93;;;17.60;99.90;;;;;;5054348;28;20183;-76
2022/06/04 07:58:52;;;;;;;4.17;3.40;;;17.60;1.00;;;;;;5054276;28;20534;-76
2022/06/04 08:01:20;;;;;;;5.87;3.17;;;17.60;99.90;;;;;;5054146;28;20184;-76
2022/06/04 08:03:46;;;;;;;5.20;3.33;;;17.70;99.90;;;;;;5054440;28;20172;-76
2022/06/04 08:06:15;;;;;;;6.63;3.83;;;17.70;1.00;;;;;;5035700;28;20172;-75
2022/06/04 08:08:41;;;;;;;3.50;3.20;;;17.80;14.70;;;;;;5036167;28;20553;-76
2022/06/04 08:13:52;;;;;;;8.03;3.43;;;17.90;99.90;;;;;;5054445;28;20278;-76
2022/06/04 08:16:18;;;;;;;4.67;3.80;;;17.90;1.00;;;;;;5036077;28;20182;-76
2022/06/04 08:18:43;;;;;;;5.20;4.37;;;18.00;99.90;;;;;;5053895;28;20168;-76
2022/06/04 08:21:09;;;;;;;4.77;3.63;;;18.00;99.90;;;;;;5053787;28;20195;-76
2022/06/04 08:23:35;;;;;;;6.23;3.20;;;18.10;1.00;;;;;;5053836;28;20168;-76
2022/06/04 08:26:01;;;;;;;4.40;3.40;;;18.20;1.00;;;;;;5053770;28;20175;-76
2022/06/04 08:28:27;;;;;;;4.27;3.50;;;18.20;1.00;;;;;;5035895;28;20175;-76
2022/06/04 08:31:05;;;;;;;5.73;3.90;;;18.20;99.90;;;;;;5054193;28;20218;-76
2022/06/04 08:33:31;;;;;;;4.03;3.63;;;18.30;99.90;;;;;;5035622;28;20333;-77
2022/06/04 08:35:57;;;;;;;5.07;3.90;;;18.30;99.90;;;;;;5035772;28;20217;-76
2022/06/04 08:38:23;;;;;;;6.17;3.43;;;18.30;99.90;;;;;;5035585;28;20167;-77
2022/06/04 08:40:56;;;;;;;5.23;3.37;;;18.40;1.00;;;;;;5053426;28;20184;-76
2022/06/04 08:43:43;;;;;;;4.30;3.67;;;18.40;1.00;;;;;;5035516;28;20183;-76
2022/06/04 08:46:16;;;;;;;5.30;3.47;;;18.30;1.00;;;;;;5053535;28;20182;-75
2022/06/04 08:48:43;;;;;;;4.93;3.90;;;18.40;1.00;;;;;;5053458;28;20155;-76
2022/06/04 08:51:25;;;;;;;5.43;4.30;;;18.40;99.90;;;;;;5053306;28;20238;-77
2022/06/04 08:53:53;;;;;;;7.37;3.77;;;18.50;99.90;;;;;;5053534;28;20194;-76
2022/06/04 08:59:30;;;;;;;6.53;3.67;;;18.60;1.00;;;;;;5053438;28;20167;-76
2022/06/04 09:02:00;;;;;;;4.57;3.70;;;18.60;99.90;;;;;;5053443;28;20515;-77
2022/06/04 09:04:32;;;;;;;4.90;3.67;;;18.70;99.90;;;;;;5053155;28;20268;-77
2022/06/04 09:07:12;;;;;;;6.43;3.60;;;18.70;99.60;;;;;;5053307;28;20171;-77
2022/06/04 09:10:01;;;;;;;9.80;4.23;;;18.80;99.90;;;;;;5035035;28;20207;-77
2022/06/04 09:12:31;;;;;;;5.43;3.83;;;18.80;1.00;;;;;;5053021;28;20168;-77
2022/06/04 09:15:10;;;;;;;6.30;4.10;;;18.80;99.90;;;;;;5035086;28;20207;-76
2022/06/04 09:17:44;;;;;;;4.90;4.40;;;18.90;1.00;;;;;;5035281;28;20159;-77
2022/06/04 09:20:26;;;;;;;6.30;3.90;;;18.90;1.00;;;;;;5034998;28;20192;-77
2022/06/04 09:22:57;;;;;;;6.70;3.30;;;19.00;1.00;;;;;;5035603;28;20164;-77
2022/06/04 09:25:28;;;;;;;4.03;3.63;;;18.90;1.00;;;;;;5053137;28;20525;-77
2022/06/04 09:28:09;;;;;;;5.80;3.50;;;19.00;1.00;;;;;;5035355;28;20167;-76
2022/06/04 09:30:45;;;;;;;6.17;3.60;;;19.00;1.00;;;;;;5052972;28;20214;-76
2022/06/04 09:33:22;;;;;;;4.17;3.23;;;19.00;1.00;;;;;;5054165;28;20238;-78
2022/06/04 09:35:48;;;;;;;3.80;3.23;;;19.10;4.30;;;;;;5052913;28;20210;-76
2022/06/04 09:38:40;;;;;;;5.33;3.57;;;19.00;56.30;;;;;;5052801;28;20199;-77
2022/06/04 09:41:18;;;;;;;9.90;3.77;;;19.00;1.00;;;;;;5032360;28;20253;-76
2022/06/04 09:43:45;;;;;;;4.07;3.30;;;19.00;1.00;;;;;;5052817;28;20156;-76
2022/06/04 09:46:13;;;;;;;8.47;3.63;;;19.10;99.90;;;;;;5034964;28;20266;-76
2022/06/04 09:48:47;;;;;;;5.50;3.20;;;19.10;99.90;;;;;;5034779;28;20691;-76
2022/06/04 09:51:23;;;;;;;5.83;4.00;;;19.10;99.90;;;;;;5053153;28;20335;-77
2022/06/04 09:53:54;;;;;;;3.90;3.17;;;19.30;11.60;;;;;;5052860;28;20199;-76
2022/06/04 09:56:34;;;;;;;6.27;3.73;;;19.30;1.00;;;;;;5052611;28;20156;-76
2022/06/04 09:59:30;;;;;;;4.20;3.80;;;19.40;99.90;;;;;;5034894;28;20164;-76
2022/06/04 10:02:09;;;;;;;5.40;4.07;;;19.50;21.00;;;;;;5050896;28;20195;-76
2022/06/04 10:04:45;;;;;;;5.10;3.63;;;19.70;1.00;;;;;;5034631;28;20172;-75
2022/06/04 10:07:15;;;;;;;6.80;4.03;;;19.80;1.00;;;;;;5034703;28;20659;-76
2022/06/04 10:10:07;;;;;;;9.10;4.17;;;19.90;99.90;;;;;;5052251;28;20574;-76
2022/06/04 10:15:41;;;;;;;6.10;3.80;;;20.00;99.90;;;;;;5052998;28;20272;-75
2022/06/04 10:18:21;;;;;;;4.53;3.70;;;20.00;99.90;;;;;;5052671;28;20156;-75
2022/06/04 10:21:06;;;;;;;5.33;3.40;;;20.20;99.90;;;;;;5034474;28;20208;-75
2022/06/04 10:23:46;;;;;;;9.40;3.77;;;20.30;99.90;;;;;;5034549;28;20186;-76
2022/06/04 10:26:26;;;;;;;4.27;3.60;;;20.50;99.90;;;;;;5034439;28;20179;-75
2022/06/04 10:29:06;;;;;;;3.93;2.90;;;20.60;99.90;;;;;;5054836;28;20164;-75
2022/06/04 10:31:53;;;;;;;5.07;3.70;;;20.70;99.90;;;;;;5056590;28;20166;-76
2022/06/04 10:34:24;;;;;;;3.60;3.20;;;20.70;1.00;;;;;;5038010;28;20260;-75
2022/06/04 10:37:16;;;;;;;5.77;3.20;;;20.70;65.10;;;;;;5056015;28;20168;-75
2022/06/04 10:39:55;;;;;;;4.20;3.73;;;20.70;99.90;;;;;;5037894;28;20207;-75
2022/06/04 10:42:29;;;;;;;4.50;3.90;;;20.70;1.00;;;;;;5056301;28;20155;-75
2022/06/04 10:45:16;;;;;;;4.17;3.20;;;20.70;1.00;;;;;;5037826;28;20171;-76
2022/06/04 10:47:50;;;;;;;5.60;3.60;;;20.90;25.70;;;;;;5055681;28;20705;-76
2022/06/04 10:50:30;;;;;;;8.50;4.10;;;20.80;1.00;;;;;;5037759;28;20635;-75
2022/06/04 10:53:07;;;;;;;5.97;4.40;;;20.90;1.00;;;;;;5038229;28;20179;-75
2022/06/04 10:55:50;;;;;;;4.67;4.17;;;21.00;1.00;;;;;;5037708;28;20167;-75
2022/06/04 10:58:40;;;;;;;4.80;4.30;;;21.10;1.00;;;;;;5055517;28;20168;-75
2022/06/04 11:01:31;;;;;;;5.17;3.30;;;21.00;99.90;;;;;;5037503;28;20195;-75
2022/06/04 11:04:19;;;;;;;5.00;4.50;;;21.10;99.90;;;;;;5055615;28;20172;-75
2022/06/04 11:06:53;;;;;;;4.03;3.63;;;21.10;99.90;;;;;;5055596;28;20254;-75
2022/06/04 11:09:23;;;;;;;6.50;4.00;;;21.20;1.00;;;;;;5037353;28;20641;-76
2022/06/04 11:11:55;;;;;;;6.83;3.90;;;21.20;1.00;;;;;;5038590;28;20168;-76
2022/06/04 11:14:44;;;;;;;4.30;3.90;;;21.30;1.00;;;;;;5055557;28;20203;-75
2022/06/04 11:17:18;;;;;;;6.20;4.03;;;21.30;1.00;;;;;;5055473;28;20238;-76
2022/06/04 11:20:16;;;;;;;7.67;4.50;;;21.40;1.00;;;;;;5054962;28;20197;-76
2022/06/04 11:23:26;;;;;;;4.13;3.77;;;21.50;99.90;;;;;;4983967;28;20217;-76
2022/06/04 11:25:58;;;;;;;5.40;4.20;;;21.60;1.00;;;;;;5034528;28;20184;-76
2022/06/04 11:28:27;;;;;;;4.20;3.80;;;21.70;99.90;;;;;;5055313;28;20624;-75
2022/06/04 11:31:05;;;;;;;6.70;4.60;;;21.60;99.90;;;;;;5054998;28;20202;-76
2022/06/04 11:33:40;;;;;;;7.97;4.60;;;21.80;99.90;;;;;;5037660;28;20191;-75
2022/06/04 11:36:06;;;;;;;4.17;3.47;;;21.80;99.90;;;;;;5036877;28;20164;-76
2022/06/04 11:38:43;;;;;;;4.60;4.10;;;21.90;1.00;;;;;;5054872;28;20179;-77
2022/06/04 11:41:30;;;;;;;6.70;4.37;;;21.80;44.90;;;;;;5035908;28;20195;-76
2022/06/04 11:44:49;;;;;;;4.23;3.67;;;21.80;99.90;;;;;;5036736;28;20175;-76
2022/06/04 11:47:50;;;;;;;6.13;4.10;;;21.80;99.90;;;;;;4957598;28;20711;-76
2022/06/04 11:50:41;;;;;;;4.30;3.90;;;21.80;99.90;;;;;;5054364;28;20195;-75
2022/06/04 11:53:25;;;;;;;6.67;3.40;;;21.80;1.00;;;;;;5054610;28;20171;-75
2022/06/04 11:56:10;;;;;;;5.80;4.43;;;21.90;1.00;;;;;;5054359;28;20206;-75
2022/06/04 11:58:59;;;;;;;5.57;3.93;;;21.90;99.90;;;;;;5054621;28;20210;-74
2022/06/04 12:01:39;;;;;;;7.30;4.20;;;21.80;99.90;;;;;;5036310;28;20207;-75
2022/06/04 12:04:15;;;;;;;5.10;4.13;;;21.90;99.90;;;;;;5054443;28;20171;-74
2022/06/04 12:06:49;;;;;;;5.40;3.90;;;21.90;99.90;;;;;;5036280;28;20175;-74
2022/06/04 12:09:38;;;;;;;8.30;4.27;;;22.00;1.00;;;;;;5036005;28;20170;-74
2022/06/04 12:12:12;;;;;;;4.33;3.57;;;22.20;99.90;;;;;;5054049;28;20235;-74
2022/06/04 12:14:49;;;;;;;3.77;3.20;;;22.20;99.90;;;;;;5053931;28;20195;-74
2022/06/04 12:17:16;;;;;;;3.80;3.33;;;22.30;99.90;;;;;;5053978;28;20182;-74
2022/06/04 12:25:36;;;;;;;5.53;3.67;;;22.80;99.90;;;;;;5053763;28;20163;-74
2022/06/04 12:28:20;;;;;;;4.63;3.50;;;22.90;99.90;;;;;;5035871;28;20180;-75
2022/06/04 12:30:47;;;;;;;6.23;4.23;;;23.10;99.90;;;;;;5053223;28;20200;-74
2022/06/04 12:33:33;;;;;;;7.97;3.70;;;23.20;1.00;;;;;;5052690;28;20170;-74
2022/06/04 12:36:05;;;;;;;4.60;3.77;;;23.30;28.60;;;;;;5053617;28;20225;-74
2022/06/04 12:38:44;;;;;;;5.23;4.10;;;23.50;1.00;;;;;;5036183;28;20171;-75
2022/06/04 12:41:21;;;;;;;5.03;4.20;;;23.50;1.00;;;;;;5036239;28;20202;-75
2022/06/04 12:43:58;;;;;;;5.53;4.13;;;23.50;1.00;;;;;;5036329;28;20167;-74
2022/06/04 12:46:24;;;;;;;5.83;3.73;;;23.60;99.90;;;;;;5054044;28;20548;-74
2022/06/04 12:49:25;;;;;;;4.40;4.00;;;23.60;99.90;;;;;;5053323;28;20247;-74
2022/06/04 12:51:56;;;;;;;4.13;3.20;;;23.60;99.90;;;;;;5053380;28;20613;-74
2022/06/04 12:54:46;;;;;;;6.73;4.57;;;23.80;99.90;;;;;;5035845;28;20202;-74
2022/06/04 12:57:11;;;;;;;6.17;4.50;;;23.80;99.90;;;;;;5053296;28;20155;-74
2022/06/04 12:59:50;;;;;;;6.97;4.17;;;23.80;99.90;;;;;;5053358;28;20213;-75
2022/06/04 13:02:36;;;;;;;4.60;3.57;;;23.90;99.90;;;;;;5053429;28;20250;-75
2022/06/04 13:05:18;;;;;;;5.40;4.33;;;23.90;1.00;;;;;;5053368;28;20187;-75
2022/06/04 13:07:55;;;;;;;6.53;4.30;;;23.90;1.00;;;;;;5035292;28;20190;-75
2022/06/04 13:10:31;;;;;;;6.13;4.03;;;23.90;75.80;;;;;;5035120;28;20626;-75
2022/06/04 13:13:44;;;;;;;3.83;3.40;;;24.00;99.90;;;;;;5035236;28;20342;-75
2022/06/04 13:16:45;;;;;;;3.27;2.70;;;24.10;1.00;;;;;;4992410;28;20202;-75
2022/06/04 13:19:40;;;;;;;5.93;3.53;;;24.30;99.90;;;;;;5035027;28;20638;-75
2022/06/04 13:22:36;;;;;;;3.60;3.17;;;24.40;1.00;;;;;;5052442;28;20201;-75
2022/06/04 13:25:06;;;;;;;3.60;2.93;;;24.50;1.00;;;;;;5042389;28;20187;-75
2022/06/04 13:27:43;;;;;;;3.47;3.03;;;24.40;1.00;;;;;;5053194;28;20633;-75
2022/06/04 13:30:18;;;;;;;5.30;3.20;;;24.60;99.90;;;;;;5034893;28;20568;-75
2022/06/04 13:32:44;;;;;;;5.17;3.40;;;24.60;99.90;;;;;;5035004;28;20171;-75
2022/06/04 13:35:18;;;;;;;3.50;3.20;;;24.60;99.90;;;;;;5052712;28;20248;-76
2022/06/04 13:37:44;;;;;;;3.17;2.87;;;24.70;99.90;;;;;;5053076;28;20259;-75
2022/06/04 13:40:22;;;;;;;3.27;2.77;;;24.90;99.90;;;;;;5034859;28;20705;-75